createdAt,value
2019-04-23T00:02:58.550Z,75.30
2019-04-23T00:08:10.241Z,77.30
2019-04-23T00:13:12.805Z,76.90
2019-04-23T00:18:23.830Z,77.10
2019-04-23T00:23:25.795Z,78.40
2019-04-23T00:28:36.045Z,79.40
2019-04-23T00:33:44.818Z,80.00
2019-04-23T00:38:45.464Z,80.40
2019-04-23T00:44:10.294Z,81.40
2019-04-23T00:49:05.578Z,82.70
2019-04-23T00:54:14.458Z,84.00
2019-04-23T00:59:12.591Z,84.70
2019-04-23T01:04:32.722Z,85.40
2019-04-23T01:09:45.801Z,86.50
2019-04-23T01:14:48.138Z,88.10
2019-04-23T01:19:54.828Z,88.50
2019-04-23T01:24:57.800Z,89.30
2019-04-23T01:30:19.702Z,89.50
2019-04-23T01:35:25.495Z,88.80
2019-04-23T01:40:36.606Z,90.70
2019-04-23T01:45:35.590Z,90.60
2019-04-23T01:50:54.631Z,90.90
2019-04-23T01:56:03.045Z,90.60
2019-04-23T02:01:08.676Z,91.40
2019-04-23T02:06:14.685Z,91.30
2019-04-23T02:11:23.198Z,90.90
2019-04-23T02:16:30.636Z,91.50
2019-04-23T02:21:38.409Z,92.10
2019-04-23T02:27:03.649Z,92.80
2019-04-23T02:32:03.234Z,93.50
2019-04-23T02:37:15.668Z,94.10
2019-04-23T02:42:40.061Z,93.80
2019-04-23T02:52:29.006Z,92.90
2019-04-23T02:57:35.265Z,92.90
2019-04-23T03:07:46.018Z,93.30
2019-04-23T03:18:39.272Z,94.30
2019-04-23T03:23:42.212Z,93.70
2019-04-23T03:34:34.955Z,94.30
2019-04-23T03:43:57.142Z,94.80
2019-04-23T03:49:23.455Z,94.50
2019-04-23T04:04:34.981Z,94.10
2019-04-23T04:09:38.750Z,94.20
2019-04-23T04:25:01.479Z,96.00
2019-04-23T04:30:14.483Z,96.10
2019-04-23T04:35:22.080Z,96.50
2019-04-23T04:50:34.719Z,97.30
2019-04-23T04:55:45.097Z,96.80
2019-04-23T05:01:03.936Z,97.20
2019-04-23T05:16:06.157Z,99.30
2019-04-23T05:21:30.495Z,99.90
2019-04-23T05:26:48.065Z,99.90
2019-04-23T05:31:28.094Z,99.90
2019-04-23T05:36:33.905Z,99.90
2019-04-23T05:47:13.300Z,99.90
2019-04-23T05:52:04.479Z,99.90
2019-04-23T05:57:00.628Z,99.90
2019-04-23T06:02:13.202Z,99.90
2019-04-23T06:12:21.593Z,99.90
2019-04-23T06:17:24.978Z,99.90
2019-04-23T06:27:49.490Z,99.90
2019-04-23T06:32:51.304Z,99.90
2019-04-23T06:38:26.121Z,99.90
2019-04-23T06:43:24.260Z,99.90
2019-04-23T06:48:28.753Z,99.90
2019-04-23T06:53:35.991Z,99.90
2019-04-23T06:58:43.729Z,99.90
2019-04-23T07:03:50.678Z,99.90
2019-04-23T07:09:09.946Z,99.90
2019-04-23T07:13:58.645Z,99.70
2019-04-23T07:19:17.705Z,99.90
2019-04-23T07:24:28.416Z,99.90
2019-04-23T07:29:26.302Z,99.90
2019-04-23T07:34:31.921Z,99.90
2019-04-23T07:40:23.013Z,99.90
2019-04-23T07:50:39.387Z,99.90
2019-04-23T08:21:30.601Z,97.60
2019-04-23T08:31:52.385Z,97.30
2019-04-23T08:43:10.997Z,97.50
2019-04-23T08:52:18.258Z,95.10
2019-04-23T08:57:29.301Z,96.70
2019-04-23T09:02:40.251Z,96.20
2019-04-23T09:07:47.961Z,94.90
2019-04-23T09:12:55.249Z,95.30
2019-04-23T09:18:01.416Z,95.30
2019-04-23T09:22:55.083Z,95.80
2019-04-23T09:28:11.520Z,96.30
2019-04-23T09:33:45.313Z,97.00
2019-04-23T09:39:00.277Z,94.80
2019-04-23T09:44:48.631Z,94.60
2019-04-23T09:49:39.457Z,95.90
2019-04-23T09:55:11.701Z,96.10
2019-04-23T10:00:02.612Z,96.10
2019-04-23T10:04:48.710Z,95.80
2019-04-23T10:09:40.540Z,97.40
2019-04-23T10:14:55.102Z,94.90
2019-04-23T10:19:53.122Z,95.70
2019-04-23T10:25:03.446Z,95.20
2019-04-23T10:30:10.080Z,96.10
2019-04-23T10:35:28.617Z,95.80
2019-04-23T10:40:28.034Z,95.00
2019-04-23T10:45:53.352Z,94.00
2019-04-23T10:51:25.992Z,94.20
2019-04-23T10:56:40.091Z,93.60
2019-04-23T11:01:36.312Z,94.10
2019-04-23T11:06:45.060Z,95.10
2019-04-23T11:12:02.192Z,95.00
2019-04-23T11:17:04.586Z,93.80
2019-04-23T11:22:33.028Z,96.10
2019-04-23T11:27:22.596Z,94.70
2019-04-23T11:32:40.901Z,95.90
2019-04-23T11:37:43.849Z,95.00
2019-04-23T11:42:39.339Z,96.00
2019-04-23T11:51:05.753Z,94.60
2019-04-23T11:53:07.040Z,94.10
2019-04-23T12:03:37.375Z,94.30
2019-04-23T12:08:49.311Z,94.20
2019-04-23T12:19:52.659Z,95.50
2019-04-23T12:25:06.579Z,94.40
2019-04-23T12:29:46.258Z,92.70
2019-04-23T12:40:07.587Z,94.50
2019-04-23T13:05:32.730Z,94.20
2019-04-23T13:10:44.137Z,92.90
2019-04-23T13:15:47.995Z,93.90
2019-04-23T13:20:58.580Z,93.90
2019-04-23T13:26:04.190Z,94.10
2019-04-23T13:31:34.567Z,94.10
2019-04-23T13:36:32.965Z,93.70
2019-04-23T13:41:33.518Z,93.00
2019-04-23T13:46:39.882Z,93.90
2019-04-23T13:51:46.783Z,92.90
2019-04-23T13:57:36.599Z,93.60
2019-04-23T14:02:17.611Z,95.30
2019-04-23T14:07:14.898Z,93.30
2019-04-23T14:12:22.347Z,94.70
2019-04-23T14:17:36.399Z,93.80
2019-04-23T14:27:48.801Z,93.20
2019-04-23T14:32:54.130Z,93.30
2019-04-23T14:38:12.929Z,93.50
2019-04-23T14:48:08.902Z,94.90
2019-04-23T15:03:32.364Z,95.90
2019-04-23T15:13:46.771Z,95.20
2019-04-23T15:19:12.993Z,95.60
2019-04-23T15:29:05.287Z,95.70
2019-04-23T15:34:23.159Z,96.00
2019-04-23T15:39:38.119Z,94.50
2019-04-23T15:44:45.369Z,95.20
2019-04-23T15:49:51.551Z,95.80
2019-04-23T15:55:02.324Z,96.10
2019-04-23T16:00:03.459Z,97.40
2019-04-23T16:04:42.258Z,95.20
2019-04-23T16:10:34.207Z,96.10
2019-04-23T16:15:23.154Z,96.30
2019-04-23T16:20:37.306Z,95.00
2019-04-23T16:25:37.870Z,96.50
2019-04-23T16:30:57.461Z,96.30
2019-04-23T16:36:05.274Z,95.30
2019-04-23T16:41:09.878Z,97.50
2019-04-23T16:51:25.222Z,97.90
2019-04-23T16:56:42.765Z,98.30
2019-04-23T17:01:35.373Z,97.70
2019-04-23T17:06:46.594Z,97.20
2019-04-23T17:12:03.036Z,99.30
2019-04-23T17:16:49.046Z,99.20
2019-04-23T17:22:04.257Z,99.60
2019-04-23T17:28:36.875Z,99.90
2019-04-23T17:33:54.547Z,99.90
2019-04-23T18:01:14.570Z,99.90
2019-04-23T18:06:21.659Z,99.90
2019-04-23T18:11:16.033Z,99.90
2019-04-23T18:16:35.423Z,99.90
2019-04-23T18:21:50.649Z,99.90
2019-04-23T18:27:19.148Z,99.90
2019-04-23T18:32:30.205Z,99.90
2019-04-23T18:37:30.038Z,99.90
2019-04-23T18:53:04.581Z,99.90
2019-04-23T19:09:10.713Z,99.90
2019-04-23T19:14:25.661Z,99.90
2019-04-23T19:19:38.231Z,99.90
2019-04-23T19:24:37.441Z,99.90
2019-04-23T19:29:44.058Z,99.90
2019-04-23T19:34:42.307Z,99.90
2019-04-23T19:39:50.119Z,99.90
2019-04-23T19:44:54.410Z,99.90
2019-04-23T19:50:03.852Z,99.90
2019-04-23T19:55:17.053Z,99.90
2019-04-23T20:00:20.143Z,99.90
2019-04-23T20:05:31.136Z,99.90
2019-04-23T20:15:59.495Z,99.90
2019-04-23T20:20:55.079Z,99.90
2019-04-23T20:32:57.976Z,99.90
2019-04-23T20:36:45.925Z,99.90
2019-04-23T21:04:29.421Z,99.90
2019-04-23T21:08:28.541Z,99.90
2019-04-23T21:18:39.581Z,99.90
2019-04-23T21:23:44.123Z,99.90
2019-04-23T21:29:09.562Z,99.90
2019-04-23T21:34:20.644Z,99.90
2019-04-23T21:39:34.347Z,99.90
2019-04-23T21:44:35.890Z,99.90
2019-04-23T21:49:57.850Z,99.90
2019-04-23T21:55:09.516Z,99.90
2019-04-23T22:00:00.594Z,99.90
2019-04-23T22:05:09.268Z,99.90
2019-04-23T22:10:12.124Z,99.90
2019-04-23T22:15:26.625Z,99.90
2019-04-23T22:25:44.271Z,99.90
2019-04-23T22:30:49.598Z,99.90
2019-04-23T22:35:57.472Z,99.90
2019-04-23T22:40:56.277Z,99.90
2019-04-23T22:51:21.081Z,99.90
2019-04-23T22:56:13.774Z,99.90
2019-04-23T23:01:25.975Z,99.90
2019-04-23T23:06:46.626Z,99.90
2019-04-23T23:11:42.929Z,99.90
2019-04-23T23:16:53.203Z,99.90
2019-04-23T23:22:02.026Z,99.90
2019-04-23T23:26:57.149Z,99.90
2019-04-23T23:32:18.780Z,99.90
2019-04-23T23:37:15.575Z,99.90
2019-04-23T23:42:26.552Z,99.90
2019-04-23T23:47:31.686Z,99.90
2019-04-23T23:52:51.631Z,99.90
2019-04-23T23:57:42.765Z,99.90
